Airfield :
LOGIN :

Register | Disclaimer

   EN    FR    IT 

 










Legend :    VFR   Marginal VFR   IFR   Intensive IFR   Very Intensive IFR
Visi :
Ceiling :
>= 8 km
>= 3000ft
5 to 8 km
1000 to 3000 ft
1500m to 5 km
500 to 1000 ft
800 to 1500m
200 to 500 ft
< 800m
< 200 ft
Symbols :   Thunderstorms  Fog  Heavy snow  Heavy precipitations  Wind > 20 kt
SIGMETs :     Misc.  Thunderstorms  Icing  Turbulence  Mountain Waves  Volcanic Ashes






- Airport Elevation : 1363 ft


ETIC - Grafenwohr Army Air Field

CURRENT METAR :
  • 282155Z AUTO 00000KT 9999 BKN029 M01/M02 A3014 RMK AO2 BKN V SCT SLP222 T10131021 400761013 $

EXPIRED METARs :
  • 282055Z AUTO 00000KT 9999 CLR M01/M02 A3014 RMK AO2 SLP222 T10111021 50001 $
  • 281955Z AUTO 00000KT 5000 BR CLR M00/M01 A3015 RMK AO2 SLP226 T10021009 $
  • 281855Z AUTO 00000KT 9999 CLR 01/00 A3015 RMK AO2 SLP225 T00110002 $
  • 281755Z AUTO 00000KT 9999 CLR 03/01 A3014 RMK AO2 SLP221 T00250012 10076 20025 53009 $
  • 281655Z AUTO 00000KT 9999 CLR 05/02 A3012 RMK AO2 SLP213 T00520019 $

TAF AMD TAF ETIC
Valid from the 28 at 20:00 until the 01 at 00:00 UTC


282000Z 2820/2924 03006KT 8000 BR OVC040 620406 QNH3006INS
TEMPO 2820/2902 6000 BR OVC010
BECMG 2902/2903 15003KT 4800 BR OVC010 620406 QNH3001INS
BECMG 2907/2908 15003KT 9999 NSW OVC015 620703 QNH2995INS
BECMG 2911/2912 15003KT 9999 OVC020 620703 QNH2980INS
BECMG 2919/2920 10003KT 8000 BR OVC010 620703 QNH2978INS
BECMG 2920/2921 12003KT 4800 BR OVC010 620703 QNH2974INS TX12/2916Z TN03/2903Z LAST NO AMDS AFT 2822 NEXT 2906



MET'MAP, your aeronautical weather chart ! - Copyright ORBIFLY December 2007 - Disclaimer

ORBIFLY MET'MAP TEAM :

Programming & Development : Alexandra Zaïnal
Original concept : Baudouin d'Aumeries
Technical & hardware support : Manuel Goepfert
Assistance : Marc-Olivier Méhu




SOURCES & CREDITS :

   NOAA